Blaenavon, United Kingdom
Current Conditions -  °F | °C
As of 5:50 PM on Saturday 20 Dec 2014 (Local Time) from EGFF Reporting Station
Broken Clouds Broken Clouds  
Wind Chill: 41°   Ceiling: 3700
Heat Index: 46°   Visibility: 6mi
Dew Point: 41°   Wind: 13mph
Humidity: 81%   Direction: 280°W
Pressure: 30.45"   Gusts: NA
Location:  51.77°N, 3.09°W
Report Text: EGFF 201750Z AUTO 28011KT 9999 BKN037 08/05 Q1031
Loading
Personal Weather Stations






























Interactive Weather Map New forecast layout! Learn more

10-Day Weather Forecast

Advertisements
Track Severe Weather on mobile